Orbital elements of FENGYUN 1C DEB
| Launched | 9 May 1999 |
| Flight ended | – |
| Launch site | Taiyuan Space Center, PRC |
| Owner | People's Republic of China |
| NORAD ID | 31720 |
| Date fetched |
Epoch osculation |
Inc. [°] |
Ecc. | RA asc node [hr] |
Arg Peri. [°] |
Mean anom [°] |
Mean motion [rev/day] |
Abs. mag |
| Date fetched |
Epoch osculation |
Inc. [°] |
Ecc. | RA asc node [hr] |
Arg Peri. [°] |
Mean anom [°] |
Mean motion [rev/day] |
Abs. mag |
| 2026 May 06 17:57 | 2026 May 05 06:42:15 | 99.0516 | 0.00970 | 3.8988 | 38.9318 | 321.8823 | 14.73827 | – |
| 2026 May 05 17:57 | 2026 May 05 06:42:15 | 99.0516 | 0.00970 | 3.8988 | 38.9318 | 321.8823 | 14.73827 | – |
| 2026 May 04 17:57 | 2026 Apr 30 06:07:42 | 99.0522 | 0.00974 | 3.5252 | 54.3320 | 321.8823 | 14.73827 | – |
| 2026 May 03 17:57 | 2026 Apr 30 06:07:42 | 99.0522 | 0.00974 | 3.5252 | 54.3320 | 321.8823 | 14.73827 | – |
| 2026 May 02 17:57 | 2026 Apr 30 06:07:42 | 99.0522 | 0.00974 | 3.5252 | 54.3320 | 321.8823 | 14.73827 | – |
| 2026 May 01 17:56 | 2026 Apr 30 06:07:42 | 99.0522 | 0.00974 | 3.5252 | 54.3320 | 321.8823 | 14.73827 | – |
| 2026 Apr 30 17:56 | 2026 Apr 30 06:07:42 | 99.0522 | 0.00974 | 3.5252 | 54.3320 | 321.8823 | 14.73827 | – |
| 2026 Apr 29 17:57 | 2026 Apr 22 05:50:47 | 99.0498 | 0.00976 | 2.9296 | 78.8451 | 321.8823 | 14.73827 | – |
| 2026 Apr 28 17:56 | 2026 Apr 22 05:50:47 | 99.0498 | 0.00976 | 2.9296 | 78.8451 | 321.8823 | 14.73827 | – |
| 2026 Apr 27 17:58 | 2026 Apr 22 05:50:47 | 99.0498 | 0.00976 | 2.9296 | 78.8451 | 321.8823 | 14.73827 | – |
| 2026 Apr 26 17:58 | 2026 Apr 22 05:50:47 | 99.0498 | 0.00976 | 2.9296 | 78.8451 | 321.8823 | 14.73827 | – |
| 2026 Apr 25 17:58 | 2026 Apr 22 05:50:47 | 99.0498 | 0.00976 | 2.9296 | 78.8451 | 321.8823 | 14.73827 | – |
| 2026 Apr 24 17:59 | 2026 Apr 22 05:50:47 | 99.0498 | 0.00976 | 2.9296 | 78.8451 | 321.8823 | 14.73827 | – |
| 2026 Apr 23 17:57 | 2026 Apr 19 06:08:42 | 99.0509 | 0.00976 | 2.7076 | 87.9890 | 321.8823 | 14.73827 | – |
| 2026 Apr 22 17:57 | 2026 Apr 19 06:08:42 | 99.0509 | 0.00976 | 2.7076 | 87.9890 | 321.8823 | 14.73827 | – |
| 2026 Apr 21 17:57 | 2026 Apr 19 06:08:42 | 99.0509 | 0.00976 | 2.7076 | 87.9890 | 321.8823 | 14.73827 | – |
| 2026 Apr 20 17:57 | 2026 Apr 19 06:08:42 | 99.0509 | 0.00976 | 2.7076 | 87.9890 | 321.8823 | 14.73827 | – |
| 2026 Apr 19 17:58 | 2026 Apr 19 06:08:42 | 99.0509 | 0.00976 | 2.7076 | 87.9890 | 321.8823 | 14.73827 | – |
| 2026 Apr 18 17:56 | 2026 Apr 12 17:42:05 | 99.0499 | 0.00974 | 2.2231 | 108.0038 | 321.8823 | 14.73827 | – |
| 2026 Apr 16 17:57 | 2026 Apr 12 17:42:05 | 99.0499 | 0.00974 | 2.2231 | 108.0038 | 321.8823 | 14.73827 | – |
| 2026 Apr 14 17:57 | 2026 Apr 12 17:42:05 | 99.0499 | 0.00974 | 2.2231 | 108.0038 | 321.8823 | 14.73827 | – |
| 2026 Apr 13 17:57 | 2026 Apr 12 17:42:05 | 99.0499 | 0.00974 | 2.2231 | 108.0038 | 321.8823 | 14.73827 | – |
| 2026 Apr 12 17:57 | 2026 Apr 08 06:08:36 | 99.0497 | 0.00973 | 1.8901 | 121.7967 | 321.8823 | 14.73827 | – |
| 2026 Apr 11 17:57 | 2026 Apr 08 06:08:36 | 99.0497 | 0.00973 | 1.8901 | 121.7967 | 321.8823 | 14.73827 | – |
| 2026 Apr 10 17:58 | 2026 Apr 08 06:08:36 | 99.0497 | 0.00973 | 1.8901 | 121.7967 | 321.8823 | 14.73827 | – |
| 2026 Apr 09 18:01 | 2026 Apr 08 06:08:36 | 99.0497 | 0.00973 | 1.8901 | 121.7967 | 321.8823 | 14.73827 | – |